sensor_id;sensor_type;location;lat;lon;timestamp;P1;durP1;ratioP1;P2;durP2;ratioP2
25731;SDS011;13585;50.864;4.406;2023-03-01T00:00:54;8.52;;;5.05;;
25731;SDS011;13585;50.864;4.406;2023-03-01T00:03:25;9.20;;;5.80;;
25731;SDS011;13585;50.864;4.406;2023-03-01T00:05:51;8.35;;;5.35;;
25731;SDS011;13585;50.864;4.406;2023-03-01T00:08:16;7.82;;;5.00;;
25731;SDS011;13585;50.864;4.406;2023-03-01T00:10:42;7.95;;;4.90;;
25731;SDS011;13585;50.864;4.406;2023-03-01T00:13:08;9.05;;;5.65;;
25731;SDS011;13585;50.864;4.406;2023-03-01T00:15:33;10.48;;;5.55;;
25731;SDS011;13585;50.864;4.406;2023-03-01T00:18:04;7.68;;;5.20;;
25731;SDS011;13585;50.864;4.406;2023-03-01T00:20:30;9.13;;;5.38;;
25731;SDS011;13585;50.864;4.406;2023-03-01T00:22:55;8.55;;;5.25;;
25731;SDS011;13585;50.864;4.406;2023-03-01T00:25:21;7.45;;;4.75;;
25731;SDS011;13585;50.864;4.406;2023-03-01T00:27:47;7.90;;;5.15;;
25731;SDS011;13585;50.864;4.406;2023-03-01T00:30:14;7.28;;;4.85;;
25731;SDS011;13585;50.864;4.406;2023-03-01T00:32:39;6.88;;;4.30;;
25731;SDS011;13585;50.864;4.406;2023-03-01T00:35:05;6.78;;;4.85;;
25731;SDS011;13585;50.864;4.406;2023-03-01T00:37:31;7.57;;;4.57;;
25731;SDS011;13585;50.864;4.406;2023-03-01T00:39:56;7.75;;;4.38;;
25731;SDS011;13585;50.864;4.406;2023-03-01T00:42:22;7.32;;;4.60;;
25731;SDS011;13585;50.864;4.406;2023-03-01T00:44:48;6.10;;;4.32;;
25731;SDS011;13585;50.864;4.406;2023-03-01T00:47:13;6.70;;;4.43;;
25731;SDS011;13585;50.864;4.406;2023-03-01T00:49:39;7.78;;;4.15;;
25731;SDS011;13585;50.864;4.406;2023-03-01T00:52:05;7.55;;;5.07;;
25731;SDS011;13585;50.864;4.406;2023-03-01T00:54:31;6.53;;;4.40;;
25731;SDS011;13585;50.864;4.406;2023-03-01T00:56:56;5.63;;;4.00;;
25731;SDS011;13585;50.864;4.406;2023-03-01T00:59:22;4.72;;;3.90;;
25731;SDS011;13585;50.864;4.406;2023-03-01T01:01:48;7.50;;;4.50;;
25731;SDS011;13585;50.864;4.406;2023-03-01T01:04:14;5.63;;;4.20;;
25731;SDS011;13585;50.864;4.406;2023-03-01T01:06:41;6.68;;;4.30;;
25731;SDS011;13585;50.864;4.406;2023-03-01T01:09:09;8.70;;;4.40;;
25731;SDS011;13585;50.864;4.406;2023-03-01T01:11:42;5.85;;;4.30;;
25731;SDS011;13585;50.864;4.406;2023-03-01T01:14:12;7.30;;;4.50;;
25731;SDS011;13585;50.864;4.406;2023-03-01T01:16:38;6.10;;;4.10;;
25731;SDS011;13585;50.864;4.406;2023-03-01T01:19:04;6.50;;;4.28;;
25731;SDS011;13585;50.864;4.406;2023-03-01T01:21:31;6.03;;;4.55;;
25731;SDS011;13585;50.864;4.406;2023-03-01T01:23:57;5.55;;;3.90;;
25731;SDS011;13585;50.864;4.406;2023-03-01T01:26:26;5.93;;;4.15;;
25731;SDS011;13585;50.864;4.406;2023-03-01T01:28:53;6.53;;;4.38;;
25731;SDS011;13585;50.864;4.406;2023-03-01T01:31:19;6.68;;;4.38;;
25731;SDS011;13585;50.864;4.406;2023-03-01T01:33:48;5.30;;;3.85;;
25731;SDS011;13585;50.864;4.406;2023-03-01T01:36:14;5.93;;;4.07;;
25731;SDS011;13585;50.864;4.406;2023-03-01T01:38:40;6.32;;;4.20;;
25731;SDS011;13585;50.864;4.406;2023-03-01T01:41:07;6.00;;;4.03;;
25731;SDS011;13585;50.864;4.406;2023-03-01T01:43:37;5.45;;;4.00;;
25731;SDS011;13585;50.864;4.406;2023-03-01T01:48:58;5.93;;;3.90;;
25731;SDS011;13585;50.864;4.406;2023-03-01T01:51:29;4.65;;;3.58;;
25731;SDS011;13585;50.864;4.406;2023-03-01T01:54:04;6.75;;;4.07;;
25731;SDS011;13585;50.864;4.406;2023-03-01T01:56:40;6.03;;;3.40;;
25731;SDS011;13585;50.864;4.406;2023-03-01T01:59:09;6.28;;;3.55;;
25731;SDS011;13585;50.864;4.406;2023-03-01T02:01:35;4.72;;;3.42;;
25731;SDS011;13585;50.864;4.406;2023-03-01T02:04:01;5.60;;;3.80;;
25731;SDS011;13585;50.864;4.406;2023-03-01T02:06:31;5.20;;;3.85;;
25731;SDS011;13585;50.864;4.406;2023-03-01T02:09:03;6.18;;;3.70;;
25731;SDS011;13585;50.864;4.406;2023-03-01T02:11:32;6.13;;;4.05;;
25731;SDS011;13585;50.864;4.406;2023-03-01T02:13:58;5.55;;;3.28;;
25731;SDS011;13585;50.864;4.406;2023-03-01T02:16:25;6.60;;;3.70;;
25731;SDS011;13585;50.864;4.406;2023-03-01T02:18:51;5.20;;;3.45;;
25731;SDS011;13585;50.864;4.406;2023-03-01T02:21:23;5.95;;;4.10;;
25731;SDS011;13585;50.864;4.406;2023-03-01T02:24:01;5.18;;;3.80;;
25731;SDS011;13585;50.864;4.406;2023-03-01T02:26:45;5.22;;;3.58;;
25731;SDS011;13585;50.864;4.406;2023-03-01T02:29:15;4.20;;;3.45;;
25731;SDS011;13585;50.864;4.406;2023-03-01T02:31:40;5.40;;;3.20;;
25731;SDS011;13585;50.864;4.406;2023-03-01T02:34:06;4.70;;;3.80;;
25731;SDS011;13585;50.864;4.406;2023-03-01T02:36:44;4.80;;;3.60;;
25731;SDS011;13585;50.864;4.406;2023-03-01T02:39:33;4.70;;;3.25;;
25731;SDS011;13585;50.864;4.406;2023-03-01T02:42:07;5.25;;;3.50;;
25731;SDS011;13585;50.864;4.406;2023-03-01T02:44:36;5.18;;;3.85;;
25731;SDS011;13585;50.864;4.406;2023-03-01T02:47:01;5.05;;;3.65;;
25731;SDS011;13585;50.864;4.406;2023-03-01T02:49:30;4.88;;;3.40;;
25731;SDS011;13585;50.864;4.406;2023-03-01T02:54:41;4.20;;;3.17;;
25731;SDS011;13585;50.864;4.406;2023-03-01T02:57:29;4.68;;;3.38;;
25731;SDS011;13585;50.864;4.406;2023-03-01T02:59:57;5.03;;;3.67;;
25731;SDS011;13585;50.864;4.406;2023-03-01T03:02:27;4.45;;;3.15;;
25731;SDS011;13585;50.864;4.406;2023-03-01T03:05:15;5.20;;;3.75;;
25731;SDS011;13585;50.864;4.406;2023-03-01T03:07:46;4.13;;;3.22;;
25731;SDS011;13585;50.864;4.406;2023-03-01T03:10:17;4.30;;;3.15;;
25731;SDS011;13585;50.864;4.406;2023-03-01T03:12:53;4.90;;;3.13;;
25731;SDS011;13585;50.864;4.406;2023-03-01T03:15:20;4.68;;;3.28;;
25731;SDS011;13585;50.864;4.406;2023-03-01T03:17:46;4.60;;;3.38;;
25731;SDS011;13585;50.864;4.406;2023-03-01T03:20:13;4.35;;;3.25;;
25731;SDS011;13585;50.864;4.406;2023-03-01T03:22:44;4.20;;;3.25;;
25731;SDS011;13585;50.864;4.406;2023-03-01T03:25:11;3.75;;;3.13;;
25731;SDS011;13585;50.864;4.406;2023-03-01T03:27:38;4.00;;;3.05;;
25731;SDS011;13585;50.864;4.406;2023-03-01T03:30:05;3.35;;;2.80;;
25731;SDS011;13585;50.864;4.406;2023-03-01T03:32:34;4.43;;;3.10;;
25731;SDS011;13585;50.864;4.406;2023-03-01T03:35:03;3.92;;;2.85;;
25731;SDS011;13585;50.864;4.406;2023-03-01T03:37:35;3.57;;;2.73;;
25731;SDS011;13585;50.864;4.406;2023-03-01T03:40:21;4.32;;;3.10;;
25731;SDS011;13585;50.864;4.406;2023-03-01T03:42:46;4.70;;;3.33;;
25731;SDS011;13585;50.864;4.406;2023-03-01T03:45:13;4.50;;;3.40;;
25731;SDS011;13585;50.864;4.406;2023-03-01T03:47:38;4.03;;;3.42;;
25731;SDS011;13585;50.864;4.406;2023-03-01T03:50:04;4.50;;;3.20;;
25731;SDS011;13585;50.864;4.406;2023-03-01T03:52:30;4.45;;;3.20;;
25731;SDS011;13585;50.864;4.406;2023-03-01T03:54:56;3.83;;;2.92;;
25731;SDS011;13585;50.864;4.406;2023-03-01T03:57:21;3.80;;;2.90;;
25731;SDS011;13585;50.864;4.406;2023-03-01T03:59:47;4.72;;;3.38;;
25731;SDS011;13585;50.864;4.406;2023-03-01T04:02:12;3.45;;;2.80;;
25731;SDS011;13585;50.864;4.406;2023-03-01T04:04:50;4.53;;;3.20;;
25731;SDS011;13585;50.864;4.406;2023-03-01T04:07:16;5.22;;;3.20;;
25731;SDS011;13585;50.864;4.406;2023-03-01T04:09:42;5.05;;;3.40;;
25731;SDS011;13585;50.864;4.406;2023-03-01T04:12:08;3.67;;;2.80;;
25731;SDS011;13585;50.864;4.406;2023-03-01T04:14:34;4.43;;;2.97;;
25731;SDS011;13585;50.864;4.406;2023-03-01T04:17:00;3.78;;;3.00;;
25731;SDS011;13585;50.864;4.406;2023-03-01T04:19:26;4.05;;;3.20;;
25731;SDS011;13585;50.864;4.406;2023-03-01T04:21:52;4.13;;;2.97;;
25731;SDS011;13585;50.864;4.406;2023-03-01T04:24:18;3.55;;;2.97;;
25731;SDS011;13585;50.864;4.406;2023-03-01T04:26:43;3.47;;;2.92;;
25731;SDS011;13585;50.864;4.406;2023-03-01T04:29:09;4.13;;;3.13;;
25731;SDS011;13585;50.864;4.406;2023-03-01T04:31:35;3.63;;;2.67;;
25731;SDS011;13585;50.864;4.406;2023-03-01T04:34:01;4.05;;;2.97;;
25731;SDS011;13585;50.864;4.406;2023-03-01T04:36:28;4.75;;;3.10;;
25731;SDS011;13585;50.864;4.406;2023-03-01T04:38:54;3.67;;;2.90;;
25731;SDS011;13585;50.864;4.406;2023-03-01T04:41:21;5.65;;;3.10;;
25731;SDS011;13585;50.864;4.406;2023-03-01T04:43:48;3.28;;;2.70;;
25731;SDS011;13585;50.864;4.406;2023-03-01T04:46:15;3.85;;;3.17;;
25731;SDS011;13585;50.864;4.406;2023-03-01T04:48:43;4.00;;;2.88;;
25731;SDS011;13585;50.864;4.406;2023-03-01T04:51:09;4.00;;;2.83;;
25731;SDS011;13585;50.864;4.406;2023-03-01T04:53:38;5.22;;;3.00;;
25731;SDS011;13585;50.864;4.406;2023-03-01T04:56:04;3.60;;;2.45;;
25731;SDS011;13585;50.864;4.406;2023-03-01T04:58:30;4.75;;;3.15;;
25731;SDS011;13585;50.864;4.406;2023-03-01T05:00:56;3.53;;;2.85;;
25731;SDS011;13585;50.864;4.406;2023-03-01T05:03:21;3.60;;;2.42;;
25731;SDS011;13585;50.864;4.406;2023-03-01T05:05:48;3.58;;;2.85;;
25731;SDS011;13585;50.864;4.406;2023-03-01T05:08:16;3.58;;;2.80;;
25731;SDS011;13585;50.864;4.406;2023-03-01T05:10:46;4.13;;;3.03;;
25731;SDS011;13585;50.864;4.406;2023-03-01T05:13:14;4.20;;;3.10;;
25731;SDS011;13585;50.864;4.406;2023-03-01T05:15:45;4.93;;;3.20;;
25731;SDS011;13585;50.864;4.406;2023-03-01T05:18:19;4.20;;;2.80;;
25731;SDS011;13585;50.864;4.406;2023-03-01T05:20:44;4.28;;;3.22;;
25731;SDS011;13585;50.864;4.406;2023-03-01T05:23:10;3.80;;;2.97;;
25731;SDS011;13585;50.864;4.406;2023-03-01T05:25:35;4.18;;;2.80;;
25731;SDS011;13585;50.864;4.406;2023-03-01T05:28:05;5.15;;;3.40;;
25731;SDS011;13585;50.864;4.406;2023-03-01T05:30:32;3.92;;;2.72;;
25731;SDS011;13585;50.864;4.406;2023-03-01T05:32:59;4.20;;;3.10;;
25731;SDS011;13585;50.864;4.406;2023-03-01T05:35:25;3.70;;;2.80;;
25731;SDS011;13585;50.864;4.406;2023-03-01T05:37:51;3.38;;;2.67;;
25731;SDS011;13585;50.864;4.406;2023-03-01T05:40:18;3.80;;;2.67;;
25731;SDS011;13585;50.864;4.406;2023-03-01T05:42:46;3.88;;;3.00;;
25731;SDS011;13585;50.864;4.406;2023-03-01T05:45:13;3.95;;;2.70;;
25731;SDS011;13585;50.864;4.406;2023-03-01T05:47:41;3.60;;;2.60;;
25731;SDS011;13585;50.864;4.406;2023-03-01T05:50:10;3.45;;;2.60;;
25731;SDS011;13585;50.864;4.406;2023-03-01T05:52:37;4.63;;;3.08;;
25731;SDS011;13585;50.864;4.406;2023-03-01T05:55:03;3.28;;;2.60;;
25731;SDS011;13585;50.864;4.406;2023-03-01T05:57:29;4.93;;;2.78;;
25731;SDS011;13585;50.864;4.406;2023-03-01T05:59:54;3.80;;;2.70;;
25731;SDS011;13585;50.864;4.406;2023-03-01T06:02:20;3.47;;;2.95;;
25731;SDS011;13585;50.864;4.406;2023-03-01T06:04:46;2.88;;;2.35;;
25731;SDS011;13585;50.864;4.406;2023-03-01T06:07:11;4.00;;;2.75;;
25731;SDS011;13585;50.864;4.406;2023-03-01T06:09:37;3.72;;;2.80;;
25731;SDS011;13585;50.864;4.406;2023-03-01T06:12:02;3.28;;;2.60;;
25731;SDS011;13585;50.864;4.406;2023-03-01T06:14:28;2.88;;;2.47;;
25731;SDS011;13585;50.864;4.406;2023-03-01T06:16:54;3.38;;;2.33;;
25731;SDS011;13585;50.864;4.406;2023-03-01T06:19:19;3.40;;;2.47;;
25731;SDS011;13585;50.864;4.406;2023-03-01T06:21:45;3.50;;;2.67;;
25731;SDS011;13585;50.864;4.406;2023-03-01T06:24:10;5.13;;;3.15;;
25731;SDS011;13585;50.864;4.406;2023-03-01T06:26:36;5.43;;;2.70;;
25731;SDS011;13585;50.864;4.406;2023-03-01T06:29:02;6.63;;;2.65;;
25731;SDS011;13585;50.864;4.406;2023-03-01T06:31:27;4.38;;;2.38;;
25731;SDS011;13585;50.864;4.406;2023-03-01T06:33:53;3.38;;;2.40;;
25731;SDS011;13585;50.864;4.406;2023-03-01T06:36:19;4.22;;;2.72;;
25731;SDS011;13585;50.864;4.406;2023-03-01T06:38:46;4.07;;;2.45;;
25731;SDS011;13585;50.864;4.406;2023-03-01T06:41:11;4.93;;;2.65;;
25731;SDS011;13585;50.864;4.406;2023-03-01T06:43:37;4.65;;;2.90;;
25731;SDS011;13585;50.864;4.406;2023-03-01T06:46:03;3.28;;;2.70;;
25731;SDS011;13585;50.864;4.406;2023-03-01T06:48:30;4.55;;;2.90;;
25731;SDS011;13585;50.864;4.406;2023-03-01T06:50:57;4.30;;;2.83;;
25731;SDS011;13585;50.864;4.406;2023-03-01T06:53:25;3.28;;;2.33;;
25731;SDS011;13585;50.864;4.406;2023-03-01T06:55:55;5.97;;;2.85;;
25731;SDS011;13585;50.864;4.406;2023-03-01T06:58:21;2.28;;;2.08;;
25731;SDS011;13585;50.864;4.406;2023-03-01T07:00:47;5.07;;;3.00;;
25731;SDS011;13585;50.864;4.406;2023-03-01T07:03:13;4.47;;;2.80;;
25731;SDS011;13585;50.864;4.406;2023-03-01T07:05:39;4.15;;;2.53;;
25731;SDS011;13585;50.864;4.406;2023-03-01T07:08:05;2.90;;;2.30;;
25731;SDS011;13585;50.864;4.406;2023-03-01T07:10:30;3.30;;;2.67;;
25731;SDS011;13585;50.864;4.406;2023-03-01T07:12:57;4.68;;;2.55;;
25731;SDS011;13585;50.864;4.406;2023-03-01T07:15:23;3.53;;;2.63;;
25731;SDS011;13585;50.864;4.406;2023-03-01T07:17:50;4.72;;;2.97;;
25731;SDS011;13585;50.864;4.406;2023-03-01T07:20:16;3.88;;;2.58;;
25731;SDS011;13585;50.864;4.406;2023-03-01T07:22:47;3.17;;;2.20;;
25731;SDS011;13585;50.864;4.406;2023-03-01T07:25:24;5.82;;;2.53;;
25731;SDS011;13585;50.864;4.406;2023-03-01T07:27:50;3.58;;;2.60;;
25731;SDS011;13585;50.864;4.406;2023-03-01T07:30:17;4.18;;;2.50;;
25731;SDS011;13585;50.864;4.406;2023-03-01T07:32:43;4.05;;;2.58;;
25731;SDS011;13585;50.864;4.406;2023-03-01T07:35:10;3.70;;;2.78;;
25731;SDS011;13585;50.864;4.406;2023-03-01T07:37:36;4.53;;;2.63;;
25731;SDS011;13585;50.864;4.406;2023-03-01T07:40:01;3.13;;;2.53;;
25731;SDS011;13585;50.864;4.406;2023-03-01T07:42:27;3.40;;;2.60;;
25731;SDS011;13585;50.864;4.406;2023-03-01T07:44:53;4.30;;;2.50;;
25731;SDS011;13585;50.864;4.406;2023-03-01T07:47:18;4.32;;;2.92;;
25731;SDS011;13585;50.864;4.406;2023-03-01T07:49:44;3.78;;;2.60;;
25731;SDS011;13585;50.864;4.406;2023-03-01T07:52:10;4.35;;;2.03;;
25731;SDS011;13585;50.864;4.406;2023-03-01T07:54:36;3.30;;;2.50;;
25731;SDS011;13585;50.864;4.406;2023-03-01T07:57:02;4.50;;;2.25;;
25731;SDS011;13585;50.864;4.406;2023-03-01T07:59:28;6.53;;;2.72;;
25731;SDS011;13585;50.864;4.406;2023-03-01T08:01:55;4.55;;;2.53;;
25731;SDS011;13585;50.864;4.406;2023-03-01T08:04:21;2.97;;;2.28;;
25731;SDS011;13585;50.864;4.406;2023-03-01T08:06:49;3.40;;;2.47;;
25731;SDS011;13585;50.864;4.406;2023-03-01T08:09:15;3.03;;;2.40;;
25731;SDS011;13585;50.864;4.406;2023-03-01T08:11:41;3.63;;;2.58;;
25731;SDS011;13585;50.864;4.406;2023-03-01T08:14:07;3.15;;;2.30;;
25731;SDS011;13585;50.864;4.406;2023-03-01T08:16:33;3.97;;;2.70;;
25731;SDS011;13585;50.864;4.406;2023-03-01T08:19:03;4.97;;;2.55;;
25731;SDS011;13585;50.864;4.406;2023-03-01T08:21:33;3.42;;;2.45;;
25731;SDS011;13585;50.864;4.406;2023-03-01T08:24:02;3.17;;;2.42;;
25731;SDS011;13585;50.864;4.406;2023-03-01T08:26:35;4.13;;;2.67;;
25731;SDS011;13585;50.864;4.406;2023-03-01T08:29:01;3.83;;;2.90;;
25731;SDS011;13585;50.864;4.406;2023-03-01T08:31:30;2.60;;;2.13;;
25731;SDS011;13585;50.864;4.406;2023-03-01T08:34:10;5.15;;;2.40;;
25731;SDS011;13585;50.864;4.406;2023-03-01T08:36:38;2.80;;;2.40;;
25731;SDS011;13585;50.864;4.406;2023-03-01T08:39:07;4.28;;;2.80;;
25731;SDS011;13585;50.864;4.406;2023-03-01T08:41:34;3.13;;;2.53;;
25731;SDS011;13585;50.864;4.406;2023-03-01T08:44:01;4.18;;;2.65;;
25731;SDS011;13585;50.864;4.406;2023-03-01T08:46:28;3.83;;;2.80;;
25731;SDS011;13585;50.864;4.406;2023-03-01T08:48:56;2.80;;;2.42;;
25731;SDS011;13585;50.864;4.406;2023-03-01T08:51:22;3.10;;;2.70;;
25731;SDS011;13585;50.864;4.406;2023-03-01T08:53:48;3.75;;;2.60;;
25731;SDS011;13585;50.864;4.406;2023-03-01T08:56:14;3.22;;;2.65;;
25731;SDS011;13585;50.864;4.406;2023-03-01T08:58:43;3.50;;;2.67;;
25731;SDS011;13585;50.864;4.406;2023-03-01T09:01:11;3.45;;;2.45;;
25731;SDS011;13585;50.864;4.406;2023-03-01T09:03:38;3.33;;;2.67;;
25731;SDS011;13585;50.864;4.406;2023-03-01T09:06:05;4.10;;;2.75;;
25731;SDS011;13585;50.864;4.406;2023-03-01T09:08:34;3.33;;;2.30;;
25731;SDS011;13585;50.864;4.406;2023-03-01T09:11:01;4.15;;;2.80;;
25731;SDS011;13585;50.864;4.406;2023-03-01T09:13:28;3.92;;;2.65;;
25731;SDS011;13585;50.864;4.406;2023-03-01T09:15:56;2.92;;;2.38;;
25731;SDS011;13585;50.864;4.406;2023-03-01T09:18:22;4.63;;;2.50;;
25731;SDS011;13585;50.864;4.406;2023-03-01T09:20:48;3.88;;;2.95;;
25731;SDS011;13585;50.864;4.406;2023-03-01T09:23:14;3.70;;;2.60;;
25731;SDS011;13585;50.864;4.406;2023-03-01T09:25:39;3.60;;;2.63;;
25731;SDS011;13585;50.864;4.406;2023-03-01T09:28:05;3.72;;;2.70;;
25731;SDS011;13585;50.864;4.406;2023-03-01T09:30:31;3.65;;;2.97;;
25731;SDS011;13585;50.864;4.406;2023-03-01T09:32:57;3.42;;;2.70;;
25731;SDS011;13585;50.864;4.406;2023-03-01T09:35:22;4.28;;;3.08;;
25731;SDS011;13585;50.864;4.406;2023-03-01T09:37:48;3.75;;;2.70;;
25731;SDS011;13585;50.864;4.406;2023-03-01T09:40:16;3.22;;;2.45;;
25731;SDS011;13585;50.864;4.406;2023-03-01T09:42:55;3.00;;;2.58;;
25731;SDS011;13585;50.864;4.406;2023-03-01T09:45:38;3.97;;;2.67;;
25731;SDS011;13585;50.864;4.406;2023-03-01T09:48:13;4.95;;;3.05;;
25731;SDS011;13585;50.864;4.406;2023-03-01T09:50:43;4.55;;;2.83;;
25731;SDS011;13585;50.864;4.406;2023-03-01T09:53:13;7.07;;;2.85;;
25731;SDS011;13585;50.864;4.406;2023-03-01T09:55:53;3.42;;;2.50;;
25731;SDS011;13585;50.864;4.406;2023-03-01T10:00:57;3.58;;;2.55;;
25731;SDS011;13585;50.864;4.406;2023-03-01T10:03:41;3.22;;;2.60;;
25731;SDS011;13585;50.864;4.406;2023-03-01T10:06:15;4.13;;;2.85;;
25731;SDS011;13585;50.864;4.406;2023-03-01T10:08:54;4.13;;;2.80;;
25731;SDS011;13585;50.864;4.406;2023-03-01T10:11:28;3.25;;;2.60;;
25731;SDS011;13585;50.864;4.406;2023-03-01T10:17:16;3.08;;;2.45;;
25731;SDS011;13585;50.864;4.406;2023-03-01T10:19:55;3.78;;;2.58;;
25731;SDS011;13585;50.864;4.406;2023-03-01T10:22:42;3.65;;;2.85;;
25731;SDS011;13585;50.864;4.406;2023-03-01T10:25:13;5.35;;;2.25;;
25731;SDS011;13585;50.864;4.406;2023-03-01T10:27:58;3.45;;;2.55;;
25731;SDS011;13585;50.864;4.406;2023-03-01T10:30:34;3.05;;;2.70;;
25731;SDS011;13585;50.864;4.406;2023-03-01T10:33:26;4.07;;;3.05;;
25731;SDS011;13585;50.864;4.406;2023-03-01T10:35:55;3.92;;;2.78;;
25731;SDS011;13585;50.864;4.406;2023-03-01T10:38:21;4.07;;;2.83;;
25731;SDS011;13585;50.864;4.406;2023-03-01T10:40:57;4.03;;;3.03;;
25731;SDS011;13585;50.864;4.406;2023-03-01T10:43:30;4.32;;;2.70;;
25731;SDS011;13585;50.864;4.406;2023-03-01T10:51:38;3.55;;;2.70;;
25731;SDS011;13585;50.864;4.406;2023-03-01T10:54:05;4.00;;;2.42;;
25731;SDS011;13585;50.864;4.406;2023-03-01T10:56:50;3.60;;;2.92;;
25731;SDS011;13585;50.864;4.406;2023-03-01T10:59:26;3.83;;;2.72;;
25731;SDS011;13585;50.864;4.406;2023-03-01T11:04:34;4.68;;;3.10;;
25731;SDS011;13585;50.864;4.406;2023-03-01T11:07:01;4.10;;;3.00;;
25731;SDS011;13585;50.864;4.406;2023-03-01T11:09:30;4.20;;;3.00;;
25731;SDS011;13585;50.864;4.406;2023-03-01T11:12:03;3.75;;;3.10;;
25731;SDS011;13585;50.864;4.406;2023-03-01T11:14:38;7.72;;;5.75;;
25731;SDS011;13585;50.864;4.406;2023-03-01T11:22:37;20.92;;;9.55;;
25731;SDS011;13585;50.864;4.406;2023-03-01T11:25:15;19.00;;;9.68;;
25731;SDS011;13585;50.864;4.406;2023-03-01T11:27:44;18.80;;;8.82;;
25731;SDS011;13585;50.864;4.406;2023-03-01T11:30:27;19.92;;;7.95;;
25731;SDS011;13585;50.864;4.406;2023-03-01T11:38:36;17.70;;;7.53;;
25731;SDS011;13585;50.864;4.406;2023-03-01T11:41:14;15.50;;;8.27;;
25731;SDS011;13585;50.864;4.406;2023-03-01T11:44:03;20.50;;;7.20;;
25731;SDS011;13585;50.864;4.406;2023-03-01T11:50:07;15.55;;;7.55;;
25731;SDS011;13585;50.864;4.406;2023-03-01T11:55:46;15.48;;;7.45;;
25731;SDS011;13585;50.864;4.406;2023-03-01T12:01:16;18.73;;;7.32;;
25731;SDS011;13585;50.864;4.406;2023-03-01T12:03:54;12.02;;;6.95;;
25731;SDS011;13585;50.864;4.406;2023-03-01T12:06:32;11.88;;;6.75;;
25731;SDS011;13585;50.864;4.406;2023-03-01T12:12:12;11.45;;;6.30;;
25731;SDS011;13585;50.864;4.406;2023-03-01T12:29:19;9.15;;;5.50;;
25731;SDS011;13585;50.864;4.406;2023-03-01T12:35:01;8.75;;;5.32;;
25731;SDS011;13585;50.864;4.406;2023-03-01T12:48:43;8.90;;;5.20;;
25731;SDS011;13585;50.864;4.406;2023-03-01T12:51:14;9.63;;;5.47;;
25731;SDS011;13585;50.864;4.406;2023-03-01T12:53:47;9.68;;;5.13;;
25731;SDS011;13585;50.864;4.406;2023-03-01T12:56:18;9.25;;;5.03;;
25731;SDS011;13585;50.864;4.406;2023-03-01T12:59:12;9.82;;;5.15;;
25731;SDS011;13585;50.864;4.406;2023-03-01T13:02:03;9.05;;;5.15;;
25731;SDS011;13585;50.864;4.406;2023-03-01T13:17:58;9.13;;;4.70;;
25731;SDS011;13585;50.864;4.406;2023-03-01T13:23:23;8.60;;;4.78;;
25731;SDS011;13585;50.864;4.406;2023-03-01T13:26:08;7.95;;;4.47;;
25731;SDS011;13585;50.864;4.406;2023-03-01T13:33:48;7.35;;;4.53;;
25731;SDS011;13585;50.864;4.406;2023-03-01T13:46:53;10.45;;;5.22;;
25731;SDS011;13585;50.864;4.406;2023-03-01T13:49:25;7.22;;;4.20;;
25731;SDS011;13585;50.864;4.406;2023-03-01T13:51:54;6.72;;;4.10;;
25731;SDS011;13585;50.864;4.406;2023-03-01T13:54:25;8.35;;;4.78;;
25731;SDS011;13585;50.864;4.406;2023-03-01T13:56:58;8.43;;;4.28;;
25731;SDS011;13585;50.864;4.406;2023-03-01T13:59:25;5.80;;;4.00;;
25731;SDS011;13585;50.864;4.406;2023-03-01T14:01:56;6.78;;;4.28;;
25731;SDS011;13585;50.864;4.406;2023-03-01T14:06:52;6.70;;;4.10;;
25731;SDS011;13585;50.864;4.406;2023-03-01T14:09:33;7.93;;;4.15;;
25731;SDS011;13585;50.864;4.406;2023-03-01T14:12:11;5.63;;;3.83;;
25731;SDS011;13585;50.864;4.406;2023-03-01T14:20:03;6.97;;;4.00;;
25731;SDS011;13585;50.864;4.406;2023-03-01T14:22:40;7.18;;;4.25;;
25731;SDS011;13585;50.864;4.406;2023-03-01T14:25:17;6.60;;;3.90;;
25731;SDS011;13585;50.864;4.406;2023-03-01T14:27:50;6.70;;;3.97;;
25731;SDS011;13585;50.864;4.406;2023-03-01T14:30:23;7.88;;;3.83;;
25731;SDS011;13585;50.864;4.406;2023-03-01T14:32:57;6.32;;;3.75;;
25731;SDS011;13585;50.864;4.406;2023-03-01T14:35:29;6.65;;;3.75;;
25731;SDS011;13585;50.864;4.406;2023-03-01T14:37:56;6.35;;;4.00;;
25731;SDS011;13585;50.864;4.406;2023-03-01T14:40:32;7.05;;;3.75;;
25731;SDS011;13585;50.864;4.406;2023-03-01T14:43:01;5.38;;;3.80;;
25731;SDS011;13585;50.864;4.406;2023-03-01T14:45:34;6.30;;;3.60;;
25731;SDS011;13585;50.864;4.406;2023-03-01T14:48:01;7.22;;;4.05;;
25731;SDS011;13585;50.864;4.406;2023-03-01T14:50:30;6.05;;;3.47;;
25731;SDS011;13585;50.864;4.406;2023-03-01T14:53:04;6.25;;;3.75;;
25731;SDS011;13585;50.864;4.406;2023-03-01T14:55:37;5.45;;;3.78;;
25731;SDS011;13585;50.864;4.406;2023-03-01T14:58:10;6.18;;;3.63;;
25731;SDS011;13585;50.864;4.406;2023-03-01T15:00:38;6.10;;;3.67;;
25731;SDS011;13585;50.864;4.406;2023-03-01T15:03:13;5.78;;;3.40;;
25731;SDS011;13585;50.864;4.406;2023-03-01T15:05:47;6.15;;;3.75;;
25731;SDS011;13585;50.864;4.406;2023-03-01T15:08:34;5.55;;;3.58;;
25731;SDS011;13585;50.864;4.406;2023-03-01T15:13:43;6.55;;;3.78;;
25731;SDS011;13585;50.864;4.406;2023-03-01T15:16:15;4.90;;;3.40;;
25731;SDS011;13585;50.864;4.406;2023-03-01T15:18:45;5.70;;;3.47;;
25731;SDS011;13585;50.864;4.406;2023-03-01T15:21:16;4.82;;;3.42;;
25731;SDS011;13585;50.864;4.406;2023-03-01T15:23:52;4.93;;;3.50;;
25731;SDS011;13585;50.864;4.406;2023-03-01T15:26:30;5.18;;;3.42;;
25731;SDS011;13585;50.864;4.406;2023-03-01T15:29:00;4.30;;;3.30;;
25731;SDS011;13585;50.864;4.406;2023-03-01T15:31:32;7.82;;;3.90;;
25731;SDS011;13585;50.864;4.406;2023-03-01T15:39:25;4.88;;;3.38;;
25731;SDS011;13585;50.864;4.406;2023-03-01T15:41:55;6.07;;;3.63;;
25731;SDS011;13585;50.864;4.406;2023-03-01T15:46:54;5.38;;;3.75;;
25731;SDS011;13585;50.864;4.406;2023-03-01T15:52:03;6.30;;;3.40;;
25731;SDS011;13585;50.864;4.406;2023-03-01T15:54:29;5.53;;;3.67;;
25731;SDS011;13585;50.864;4.406;2023-03-01T15:56:55;6.65;;;3.80;;
25731;SDS011;13585;50.864;4.406;2023-03-01T15:59:20;5.47;;;3.78;;
25731;SDS011;13585;50.864;4.406;2023-03-01T16:01:47;5.10;;;3.47;;
25731;SDS011;13585;50.864;4.406;2023-03-01T16:04:15;4.55;;;3.55;;
25731;SDS011;13585;50.864;4.406;2023-03-01T16:06:47;6.53;;;3.45;;
25731;SDS011;13585;50.864;4.406;2023-03-01T16:09:22;6.30;;;3.88;;
25731;SDS011;13585;50.864;4.406;2023-03-01T16:11:48;6.25;;;3.45;;
25731;SDS011;13585;50.864;4.406;2023-03-01T16:14:15;4.53;;;3.17;;
25731;SDS011;13585;50.864;4.406;2023-03-01T16:16:41;4.97;;;3.22;;
25731;SDS011;13585;50.864;4.406;2023-03-01T16:19:07;5.30;;;3.75;;
25731;SDS011;13585;50.864;4.406;2023-03-01T16:21:33;4.80;;;3.15;;
25731;SDS011;13585;50.864;4.406;2023-03-01T16:23:58;6.80;;;3.47;;
25731;SDS011;13585;50.864;4.406;2023-03-01T16:26:24;6.20;;;3.40;;
25731;SDS011;13585;50.864;4.406;2023-03-01T16:28:50;5.28;;;3.67;;
25731;SDS011;13585;50.864;4.406;2023-03-01T16:31:21;4.57;;;3.42;;
25731;SDS011;13585;50.864;4.406;2023-03-01T16:33:46;4.75;;;3.20;;
25731;SDS011;13585;50.864;4.406;2023-03-01T16:36:14;5.13;;;3.67;;
25731;SDS011;13585;50.864;4.406;2023-03-01T16:38:41;5.80;;;3.90;;
25731;SDS011;13585;50.864;4.406;2023-03-01T16:41:14;4.45;;;3.55;;
25731;SDS011;13585;50.864;4.406;2023-03-01T16:43:42;4.78;;;3.42;;
25731;SDS011;13585;50.864;4.406;2023-03-01T16:46:15;6.45;;;3.92;;
25731;SDS011;13585;50.864;4.406;2023-03-01T16:48:43;3.88;;;3.28;;
25731;SDS011;13585;50.864;4.406;2023-03-01T16:51:10;6.60;;;3.65;;
25731;SDS011;13585;50.864;4.406;2023-03-01T16:53:36;6.00;;;3.55;;
25731;SDS011;13585;50.864;4.406;2023-03-01T16:56:03;5.25;;;4.00;;
25731;SDS011;13585;50.864;4.406;2023-03-01T16:58:36;5.15;;;3.90;;
25731;SDS011;13585;50.864;4.406;2023-03-01T17:01:10;4.88;;;3.45;;
25731;SDS011;13585;50.864;4.406;2023-03-01T17:03:37;6.53;;;4.10;;
25731;SDS011;13585;50.864;4.406;2023-03-01T17:06:08;5.28;;;3.70;;